Hafnia Lene — 9HA3923 — position and weather

sailwx.info

Track history (hours):
 
Tides and Currents Weather Stations Pressure Air Temp Water Temp Dewpoint Dewpoint Depression Visibility Wind Speed Wind Dir Waves Ship Positions

Hafnia Lene

Last reported at 2018-May-25 00:10 UTC. Time now 2018-May-25 22:38 UTC.
Position N 29°45' W 095°12'.

Length 183 m; draft 10.2 m.

Type: Tanker. MMSI: 256468000.

Date/timePositionNaut miles runAvg speedWind from/ knotsBaromVisibWave heightAir tempDewpointWater temp
2018-May-25 00:10N 29°45' W 095°12'0 0.9
2018-May-25 00:00N 29°44' W 095°12'1 2.5
2018-May-24 23:30N 29°45' W 095°11'3 5.6
2018-May-24 23:00N 29°44' W 095°08'3 6.1
2018-May-24 22:30N 29°46' W 095°05'4 7.5
2018-May-24 22:00N 29°43' W 095°01'4 8.6
2018-May-24 21:30N 29°40' W 094°58'510.1
2018-May-24 21:00N 29°35' W 094°56'611.5
2018-May-24 20:30N 29°31' W 094°53'612.5
2018-May-24 20:00N 29°25' W 094°50'612.2
2018-May-24 19:31N 29°21' W 094°44'612.6
2018-May-24 19:00N 29°18' W 094°38'4 7.9
2018-May-24 18:31N 29°17' W 094°34'5 9.0
2018-May-24 18:00N 29°14' W 094°30'510.4
2018-May-24 17:30N 29°10' W 094°25'4 8.8
2018-May-24 17:01N 29°07' W 094°27'7 9.5
2018-May-24 16:19N 29°04' W 094°34'310.2
2018-May-24 16:00N 29°05' W 094°38'3 2.3
2018-May-24 14:35N 29°07' W 094°41'0 0.0
2018-May-24 14:08N 29°07' W 094°41'0 0.0
2018-May-24 13:50N 29°07' W 094°41'0 0.0
2018-May-24 01:20N 29°07' W 094°41'0 0.0
2018-May-24 00:59N 29°07' W 094°41'0 0.0
2018-May-23 23:11N 29°07' W 094°41'0 0.0
2018-May-23 22:50N 29°07' W 094°41'0 0.0
2018-May-23 22:05N 29°07' W 094°41'0 0.0
2018-May-23 21:44N 29°07' W 094°41'0 0.0
2018-May-23 21:29N 29°07' W 094°41'0 0.0
2018-May-23 19:38N 29°07' W 094°41'0 0.0
2018-May-23 19:26N 29°07' W 094°41'0 0.0
2018-May-23 18:08N 29°07' W 094°41'0 0.0
2018-May-23 17:59N 29°07' W 094°41'0 0.0
2018-May-23 17:05N 29°07' W 094°41'0 0.1
2018-May-23 16:59N 29°07' W 094°41'0 0.0
2018-May-23 16:20N 29°07' W 094°41'0 0.0
2018-May-23 15:59N 29°07' W 094°41'0 0.0
2018-May-23 15:02N 29°07' W 094°41'0 0.1
2018-May-23 14:59N 29°07' W 094°41'0 0.0
2018-May-23 14:23N 29°07' W 094°41'0 0.0
2018-May-23 13:56N 29°07' W 094°41'0 0.0
2018-May-23 13:17N 29°07' W 094°41'0 0.0
2018-May-23 12:17N 29°07' W 094°41'0 0.0
2018-May-23 11:59N 29°07' W 094°41'0 0.0
2018-May-23 08:29N 29°07' W 094°41'0 0.0
2018-May-23 07:20N 29°07' W 094°41'0 0.0
2018-May-23 06:35N 29°07' W 094°41'0 0.1
2018-May-23 06:29N 29°07' W 094°41'0 0.0
2018-May-23 05:59N 29°07' W 094°41'0 0.0
2018-May-23 01:23N 29°07' W 094°41'0 0.0
2018-May-23 00:59N 29°07' W 094°41'0 0.0
2018-May-23 00:29N 29°07' W 094°41'0 0.1
2018-May-22 23:59N 29°07' W 094°41'0 0.0
2018-May-22 23:14N 29°07' W 094°41'0 0.1
2018-May-22 22:56N 29°07' W 094°41'0 0.0
2018-May-22 22:29N 29°07' W 094°41'0 0.0
2018-May-22 21:56N 29°07' W 094°41'0 0.0
2018-May-22 21:29N 29°07' W 094°41'0 0.0
2018-May-22 20:59N 29°07' W 094°41'0 0.1
2018-May-22 20:29N 29°07' W 094°41'0 0.0
2018-May-22 19:59N 29°07' W 094°41'0 0.0
2018-May-22 19:26N 29°07' W 094°41'0 0.0
2018-May-22 18:59N 29°07' W 094°41'0 0.0
2018-May-22 18:20N 29°07' W 094°41'0 0.0
2018-May-22 17:56N 29°07' W 094°41'0 0.0
2018-May-22 17:11N 29°07' W 094°41'0 0.0
2018-May-22 16:53N 29°07' W 094°41'0 0.0
2018-May-22 16:29N 29°07' W 094°41'0 0.0
2018-May-22 15:59N 29°07' W 094°41'0 0.0
2018-May-22 15:26N 29°07' W 094°41'0 0.0
2018-May-22 14:59N 29°07' W 094°41'0 0.0
2018-May-22 14:29N 29°07' W 094°41'0 0.0
2018-May-22 13:59N 29°07' W 094°41'0 0.0
2018-May-22 13:29N 29°07' W 094°41'0 0.0
2018-May-22 12:59N 29°07' W 094°41'0 0.0
2018-May-22 12:29N 29°07' W 094°41'0 0.0
2018-May-22 11:59N 29°07' W 094°41'0 0.0
2018-May-22 11:26N 29°07' W 094°41'0 0.0
2018-May-22 10:53N 29°07' W 094°41'0 0.0
2018-May-22 10:11N 29°07' W 094°41'0 0.0
2018-May-22 09:11N 29°07' W 094°41'0 0.0
2018-May-22 08:50N 29°07' W 094°41'0 0.0
2018-May-22 08:26N 29°07' W 094°41'0 0.0
2018-May-22 05:20N 29°07' W 094°41'0 0.0
2018-May-22 04:59N 29°07' W 094°41'0 0.0
2018-May-22 04:26N 29°07' W 094°41'0 0.0
2018-May-22 01:29N 29°07' W 094°41'0 0.0
2018-May-21 22:29N 29°07' W 094°41'0 0.0
2018-May-21 21:59N 29°07' W 094°41'0 0.0
2018-May-21 21:29N 29°07' W 094°41'0 0.0
2018-May-21 20:59N 29°07' W 094°41'0 0.0
2018-May-21 20:29N 29°07' W 094°41'0 0.0
2018-May-21 19:59N 29°07' W 094°41'0 0.0
2018-May-21 19:29N 29°07' W 094°41'0 0.0
2018-May-21 18:11N 29°07' W 094°41'0 0.1
2018-May-21 17:59N 29°07' W 094°41'0 0.0
2018-May-21 17:23N 29°07' W 094°41'0 0.0
2018-May-21 16:59N 29°07' W 094°41'0 0.0
2018-May-21 15:32N 29°07' W 094°41'0 0.0
2018-May-21 15:23N 29°07' W 094°41'0 0.0
2018-May-21 14:50N 29°07' W 094°41'0 0.0
2018-May-21 14:20N 29°07' W 094°41'0 0.0
2018-May-21 12:38N 29°07' W 094°41'0 0.0
2018-May-21 12:26N 29°07' W 094°41'0 0.0
2018-May-21 11:47N 29°07' W 094°41'0 0.0
2018-May-21 11:20N 29°07' W 094°41'0 0.0
2018-May-21 10:59N 29°07' W 094°41'0 0.0
2018-May-21 09:53N 29°07' W 094°41'0 0.0
2018-May-21 09:26N 29°07' W 094°41'0 0.0
2018-May-21 08:59N 29°07' W 094°41'0 0.0
2018-May-21 05:17N 29°07' W 094°41'0 0.1
2018-May-21 04:59N 29°07' W 094°41'0 0.0
2018-May-21 04:23N 29°07' W 094°41'0 0.0
2018-May-21 01:20N 29°07' W 094°41'0 0.0
2018-May-21 00:56N 29°07' W 094°41'0 0.0
2018-May-21 00:29N 29°07' W 094°41'0 0.0
2018-May-20 23:56N 29°07' W 094°41'0 0.0
2018-May-20 23:29N 29°07' W 094°41'0 0.0
2018-May-20 22:53N 29°07' W 094°41'0 0.0
2018-May-20 22:29N 29°07' W 094°41'0 0.0
2018-May-20 21:59N 29°07' W 094°41'0 0.0
2018-May-20 21:20N 29°07' W 094°41'0 0.0
2018-May-20 20:50N 29°07' W 094°41'0 0.0
2018-May-20 20:26N 29°07' W 094°41'0 0.0
2018-May-20 19:59N 29°07' W 094°41'0 0.0
2018-May-20 19:20N 29°07' W 094°41'0 0.0
2018-May-20 18:59N 29°07' W 094°41'0 0.0
2018-May-20 18:29N 29°07' W 094°41'0 0.0
2018-May-20 17:59N 29°07' W 094°41'0 0.0
2018-May-20 17:29N 29°07' W 094°41'0 0.0
2018-May-20 16:17N 29°07' W 094°41'0 0.1
2018-May-20 15:59N 29°07' W 094°41'0 0.0
2018-May-20 15:26N 29°07' W 094°41'0 0.0
2018-May-20 14:59N 29°07' W 094°41'0 0.0
2018-May-20 14:29N 29°07' W 094°41'0 0.0
2018-May-20 13:59N 29°07' W 094°41'0 0.0
2018-May-20 13:29N 29°07' W 094°41'0 0.0
2018-May-20 12:59N 29°07' W 094°41'0 0.0
2018-May-20 12:29N 29°07' W 094°41'0 0.0
2018-May-20 11:59N 29°07' W 094°41'0 0.0
2018-May-20 11:29N 29°07' W 094°41'0 0.0
2018-May-20 10:59N 29°07' W 094°41'0 0.0
2018-May-20 10:29N 29°07' W 094°41'0 0.0
2018-May-20 09:59N 29°07' W 094°41'0 0.0
2018-May-20 09:29N 29°07' W 094°41'0 0.0
2018-May-20 08:56N 29°07' W 094°41'0 0.0
2018-May-20 08:29N 29°07' W 094°41'0 0.0
2018-May-20 07:59N 29°07' W 094°41'0 0.0
2018-May-20 07:26N 29°07' W 094°41'0 0.0
2018-May-20 06:59N 29°07' W 094°41'0 0.0
2018-May-20 06:29N 29°07' W 094°41'0 0.0
2018-May-20 04:26N 29°07' W 094°41'0 0.0
2018-May-19 23:59N 29°07' W 094°41'0 0.0
2018-May-19 21:59N 29°07' W 094°41'0 0.0
2018-May-19 20:08N 29°07' W 094°41'0 0.0
2018-May-19 19:41N 29°07' W 094°41'0 0.0
2018-May-19 19:14N 29°07' W 094°41'0 0.0
2018-May-19 18:59N 29°07' W 094°41'0 0.0
2018-May-19 18:26N 29°07' W 094°41'0 0.0
2018-May-19 17:26N 29°07' W 094°41'0 0.0
2018-May-19 16:56N 29°07' W 094°41'0 0.0
2018-May-19 16:29N 29°07' W 094°41'0 0.0
2018-May-19 15:59N 29°07' W 094°41'0 0.0
2018-May-19 15:29N 29°07' W 094°41'0 0.0
2018-May-19 14:32N 29°07' W 094°41'0 0.1
2018-May-19 14:26N 29°07' W 094°41'0 0.0
2018-May-19 13:47N 29°07' W 094°41'0 0.0
2018-May-19 13:17N 29°07' W 094°41'0 0.0
2018-May-19 12:23N 29°07' W 094°41'0 0.0
2018-May-19 11:59N 29°07' W 094°41'0 0.0
2018-May-19 11:23N 29°07' W 094°41'0 0.0
2018-May-19 10:59N 29°07' W 094°41'0 0.0
2018-May-19 10:29N 29°07' W 094°41'0 0.0
2018-May-19 09:56N 29°07' W 094°41'0 0.0
2018-May-19 09:26N 29°07' W 094°41'0 0.0
2018-May-19 08:47N 29°07' W 094°41'0 0.0
2018-May-19 08:26N 29°07' W 094°41'0 0.0
2018-May-19 07:59N 29°07' W 094°41'0 0.0
2018-May-19 07:26N 29°07' W 094°41'0 0.0
2018-May-19 06:56N 29°07' W 094°41'0 0.0
2018-May-19 06:29N 29°07' W 094°41'0 0.0
2018-May-19 05:56N 29°07' W 094°41'0 0.0
2018-May-19 05:29N 29°07' W 094°41'0 0.0
2018-May-19 04:59N 29°07' W 094°41'0 0.0
2018-May-19 04:29N 29°07' W 094°41'0 0.0
2018-May-19 03:23N 29°07' W 094°41'0 0.0
2018-May-19 01:53N 29°07' W 094°41'0 0.0
2018-May-19 01:26N 29°07' W 094°41'0 0.0
2018-May-19 00:53N 29°07' W 094°41'0 0.0
2018-May-19 00:26N 29°07' W 094°41'0 0.0
2018-May-18 23:56N 29°07' W 094°41'0 0.0
2018-May-18 23:17N 29°07' W 094°41'0 0.0
2018-May-18 22:59N 29°07' W 094°41'0 0.0
2018-May-18 22:29N 29°07' W 094°41'0 0.0
2018-May-18 21:59N 29°07' W 094°41'0 0.0
2018-May-18 21:29N 29°07' W 094°41'0 0.0
2018-May-18 20:59N 29°07' W 094°41'0 0.0
2018-May-18 20:29N 29°07' W 094°41'0 0.0
2018-May-18 19:53N 29°07' W 094°41'0 0.0
2018-May-18 19:29N 29°07' W 094°41'0 0.0
2018-May-18 18:59N 29°07' W 094°41'0 0.0
2018-May-18 18:20N 29°07' W 094°41'0 0.0
2018-May-18 17:59N 29°07' W 094°41'0 0.0
2018-May-18 17:29N 29°07' W 094°41'0 0.0
2018-May-18 16:47N 29°07' W 094°41'0 0.0
2018-May-18 16:29N 29°07' W 094°41'0 0.0
2018-May-18 15:56N 29°07' W 094°41'0 0.0
2018-May-18 12:35N 29°07' W 094°41'0 0.1
2018-May-18 12:29N 29°07' W 094°41'0 0.0
2018-May-18 11:59N 29°07' W 094°41'0 0.0
2018-May-18 11:29N 29°07' W 094°41'0 0.0
2018-May-18 10:59N 29°07' W 094°41'0 0.0
2018-May-18 10:26N 29°07' W 094°41'0 0.0
2018-May-18 09:56N 29°07' W 094°41'0 0.0
2018-May-18 09:29N 29°07' W 094°41'0 0.0
2018-May-18 08:59N 29°07' W 094°41'0 0.0
2018-May-18 08:26N 29°07' W 094°41'0 0.0
2018-May-18 07:59N 29°07' W 094°41'0 0.0
2018-May-18 07:29N 29°07' W 094°41'0 0.0
2018-May-18 06:59N 29°07' W 094°41'0 0.0
2018-May-18 06:29N 29°07' W 094°41'0 0.0
2018-May-18 05:59N 29°07' W 094°41'0 0.0
2018-May-18 05:29N 29°07' W 094°41'0 0.0
2018-May-18 04:59N 29°07' W 094°41'0 0.0
2018-May-18 04:26N 29°07' W 094°41'0 0.0
2018-May-18 03:59N 29°07' W 094°41'0 0.0
2018-May-18 03:20N 29°07' W 094°41'0 0.0
2018-May-18 02:59N 29°07' W 094°41'0 0.0
2018-May-18 02:29N 29°07' W 094°41'0 0.0
2018-May-18 01:59N 29°07' W 094°41'0 0.0
2018-May-18 01:23N 29°07' W 094°41'0 0.0
2018-May-18 00:53N 29°07' W 094°41'0 0.0
2018-May-18 00:29N 29°07' W 094°41'0 0.0
2018-May-17 23:59N 29°07' W 094°41'0 0.0
2018-May-17 23:29N 29°07' W 094°41'0 0.0
2018-May-17 22:59N 29°07' W 094°41'0 0.0
2018-May-17 22:29N 29°07' W 094°41'0 0.0
2018-May-17 21:59N 29°07' W 094°41'0 0.0
2018-May-17 21:29N 29°07' W 094°41'0 0.0
2018-May-17 20:59N 29°07' W 094°41'0 0.0
2018-May-17 20:29N 29°07' W 094°41'0 0.0
2018-May-17 19:47N 29°07' W 094°41'0 0.0
2018-May-17 19:29N 29°07' W 094°41'0 0.0
2018-May-17 18:59N 29°07' W 094°41'0 0.0
2018-May-17 18:29N 29°07' W 094°41'0 0.0
2018-May-17 17:56N 29°07' W 094°41'0 0.0
2018-May-17 17:29N 29°07' W 094°41'0 0.0
2018-May-17 16:59N 29°07' W 094°41'0 0.0
2018-May-17 15:41N 29°07' W 094°41'0 0.0
2018-May-17 15:29N 29°07' W 094°41'0 0.0
2018-May-17 14:59N 29°07' W 094°41'0 0.0
2018-May-17 14:29N 29°07' W 094°41'0 0.0
2018-May-17 13:56N 29°07' W 094°41'0 0.0
2018-May-17 13:26N 29°07' W 094°41'0 0.0
2018-May-17 12:50N 29°07' W 094°41'0 0.0
2018-May-17 12:29N 29°07' W 094°41'0 0.0
2018-May-17 10:26N 29°07' W 094°41'0 0.0
2018-May-17 07:47N 29°07' W 094°41'0 0.0
2018-May-17 07:17N 29°07' W 094°41'0 0.0
2018-May-17 06:53N 29°07' W 094°41'0 0.0
2018-May-17 06:29N 29°07' W 094°41'0 0.0
2018-May-17 05:59N 29°07' W 094°41'0 0.0
2018-May-17 05:29N 29°07' W 094°41'0 0.0
2018-May-17 04:56N 29°07' W 094°41'0 0.0
2018-May-17 04:29N 29°07' W 094°41'0 0.0
2018-May-17 03:59N 29°07' W 094°41'0 0.0
2018-May-17 03:29N 29°07' W 094°41'0 0.0
2018-May-17 02:59N 29°07' W 094°41'0 0.0
2018-May-17 02:29N 29°07' W 094°41'0 0.0
2018-May-17 01:59N 29°07' W 094°41'0 0.0
2018-May-17 01:29N 29°07' W 094°41'0 0.0
2018-May-17 00:59N 29°07' W 094°41'0 0.0
2018-May-17 00:14N 29°07' W 094°41'0 0.0
2018-May-16 23:59N 29°07' W 094°41'0 0.1
2018-May-16 23:30N 29°07' W 094°41'2 3.8
2018-May-16 23:00N 29°06' W 094°39'510.4
2018-May-16 22:30N 29°04' W 094°33'611.8
2018-May-16 22:00N 29°02' W 094°27'611.6
2018-May-16 21:30N 28°56' W 094°25'612.4
2018-May-16 21:00N 28°50' W 094°25'612.3
2018-May-16 20:30N 28°44' W 094°25'612.3
2018-May-16 20:00N 28°38' W 094°25'612.3
2018-May-16 19:30N 28°32' W 094°25'612.1
2018-May-16 19:00N 28°26' W 094°25'612.1
2018-May-16 18:29N 28°19' W 094°25'612.2
2018-May-16 18:00N 28°14' W 094°25'612.5
2018-May-16 17:30N 28°07' W 094°25'612.4
2018-May-16 17:00N 28°01' W 094°25'612.7
2018-May-16 16:30N 27°55' W 094°26'4 8.2
2018-May-16 16:00N 27°51' W 094°26'3 6.5
2018-May-16 15:30N 27°48' W 094°25'612.4
2018-May-16 15:00N 27°41' W 094°25'612.4
2018-May-16 14:30N 27°36' W 094°21'713.2
2018-May-16 14:01N 27°32' W 094°16'713.2
2018-May-16 13:30N 27°27' W 094°11'613.0
2018-May-16 13:00N 27°22' W 094°06'612.9
2018-May-16 12:30N 27°18' W 094°00'713.1
2018-May-16 11:58N 27°13' W 093°55'613.2
2018-May-16 11:30N 27°08' W 093°50'612.9
2018-May-16 11:01N 27°04' W 093°45'713.2
2018-May-16 10:30N 26°59' W 093°40'713.2
2018-May-16 10:00N 26°54' W 093°35'713.0
2018-May-16 09:30N 26°49' W 093°30'612.9
2018-May-16 09:00N 26°45' W 093°25'613.0
2018-May-16 08:31N 26°40' W 093°19'613.0
2018-May-16 08:01N 26°36' W 093°14'2313.1
2018-May-16 06:15N 26°19' W 092°57'313.2
2018-May-16 06:00N 26°17' W 092°54'  
Track history (hours):
 
Tides and Currents Weather Stations Pressure Air Temp Water Temp Dewpoint Dewpoint Depression Visibility Wind Speed Wind Dir Waves Ship Positions

Hafnia Lene

Last reported at 2018-May-25 00:10 UTC. Time now 2018-May-25 22:38 UTC.
Position N 29°45' W 095°12'.

Length 183 m; draft 10.2 m.

Type: Tanker. MMSI: 256468000.

Date/timePositionNaut miles runAvg speedWind from/ knotsBaromVisibWave heightAir tempDewpointWater temp
2018-May-25 00:10N 29°45' W 095°12'0 0.9
2018-May-25 00:00N 29°44' W 095°12'1 2.5
2018-May-24 23:30N 29°45' W 095°11'3 5.6
2018-May-24 23:00N 29°44' W 095°08'3 6.1
2018-May-24 22:30N 29°46' W 095°05'4 7.5
2018-May-24 22:00N 29°43' W 095°01'4 8.6
2018-May-24 21:30N 29°40' W 094°58'510.1
2018-May-24 21:00N 29°35' W 094°56'611.5
2018-May-24 20:30N 29°31' W 094°53'612.5
2018-May-24 20:00N 29°25' W 094°50'612.2
2018-May-24 19:31N 29°21' W 094°44'612.6
2018-May-24 19:00N 29°18' W 094°38'4 7.9
2018-May-24 18:31N 29°17' W 094°34'5 9.0
2018-May-24 18:00N 29°14' W 094°30'510.4
2018-May-24 17:30N 29°10' W 094°25'4 8.8
2018-May-24 17:01N 29°07' W 094°27'7 9.5
2018-May-24 16:19N 29°04' W 094°34'310.2
2018-May-24 16:00N 29°05' W 094°38'3 2.3
2018-May-24 14:35N 29°07' W 094°41'0 0.0
2018-May-24 14:08N 29°07' W 094°41'0 0.0
2018-May-24 13:50N 29°07' W 094°41'0 0.0
2018-May-24 01:20N 29°07' W 094°41'0 0.0
2018-May-24 00:59N 29°07' W 094°41'0 0.0
2018-May-23 23:11N 29°07' W 094°41'0 0.0
2018-May-23 22:50N 29°07' W 094°41'0 0.0
2018-May-23 22:05N 29°07' W 094°41'0 0.0
2018-May-23 21:44N 29°07' W 094°41'0 0.0
2018-May-23 21:29N 29°07' W 094°41'0 0.0
2018-May-23 19:38N 29°07' W 094°41'0 0.0
2018-May-23 19:26N 29°07' W 094°41'0 0.0
2018-May-23 18:08N 29°07' W 094°41'0 0.0
2018-May-23 17:59N 29°07' W 094°41'0 0.0
2018-May-23 17:05N 29°07' W 094°41'0 0.1
2018-May-23 16:59N 29°07' W 094°41'0 0.0
2018-May-23 16:20N 29°07' W 094°41'0 0.0
2018-May-23 15:59N 29°07' W 094°41'0 0.0
2018-May-23 15:02N 29°07' W 094°41'0 0.1
2018-May-23 14:59N 29°07' W 094°41'0 0.0
2018-May-23 14:23N 29°07' W 094°41'0 0.0
2018-May-23 13:56N 29°07' W 094°41'0 0.0
2018-May-23 13:17N 29°07' W 094°41'0 0.0
2018-May-23 12:17N 29°07' W 094°41'0 0.0
2018-May-23 11:59N 29°07' W 094°41'0 0.0
2018-May-23 08:29N 29°07' W 094°41'0 0.0
2018-May-23 07:20N 29°07' W 094°41'0 0.0
2018-May-23 06:35N 29°07' W 094°41'0 0.1
2018-May-23 06:29N 29°07' W 094°41'0 0.0
2018-May-23 05:59N 29°07' W 094°41'0 0.0
2018-May-23 01:23N 29°07' W 094°41'0 0.0
2018-May-23 00:59N 29°07' W 094°41'0 0.0
2018-May-23 00:29N 29°07' W 094°41'0 0.1
2018-May-22 23:59N 29°07' W 094°41'0 0.0
2018-May-22 23:14N 29°07' W 094°41'0 0.1
2018-May-22 22:56N 29°07' W 094°41'0 0.0
2018-May-22 22:29N 29°07' W 094°41'0 0.0
2018-May-22 21:56N 29°07' W 094°41'0 0.0
2018-May-22 21:29N 29°07' W 094°41'0 0.0
2018-May-22 20:59N 29°07' W 094°41'0 0.1
2018-May-22 20:29N 29°07' W 094°41'0 0.0
2018-May-22 19:59N 29°07' W 094°41'0 0.0
2018-May-22 19:26N 29°07' W 094°41'0 0.0
2018-May-22 18:59N 29°07' W 094°41'0 0.0
2018-May-22 18:20N 29°07' W 094°41'0 0.0
2018-May-22 17:56N 29°07' W 094°41'0 0.0
2018-May-22 17:11N 29°07' W 094°41'0 0.0
2018-May-22 16:53N 29°07' W 094°41'0 0.0
2018-May-22 16:29N 29°07' W 094°41'0 0.0
2018-May-22 15:59N 29°07' W 094°41'0 0.0
2018-May-22 15:26N 29°07' W 094°41'0 0.0
2018-May-22 14:59N 29°07' W 094°41'0 0.0
2018-May-22 14:29N 29°07' W 094°41'0 0.0
2018-May-22 13:59N 29°07' W 094°41'0 0.0
2018-May-22 13:29N 29°07' W 094°41'0 0.0
2018-May-22 12:59N 29°07' W 094°41'0 0.0
2018-May-22 12:29N 29°07' W 094°41'0 0.0
2018-May-22 11:59N 29°07' W 094°41'0 0.0
2018-May-22 11:26N 29°07' W 094°41'0 0.0
2018-May-22 10:53N 29°07' W 094°41'0 0.0
2018-May-22 10:11N 29°07' W 094°41'0 0.0
2018-May-22 09:11N 29°07' W 094°41'0 0.0
2018-May-22 08:50N 29°07' W 094°41'0 0.0
2018-May-22 08:26N 29°07' W 094°41'0 0.0
2018-May-22 05:20N 29°07' W 094°41'0 0.0
2018-May-22 04:59N 29°07' W 094°41'0 0.0
2018-May-22 04:26N 29°07' W 094°41'0 0.0
2018-May-22 01:29N 29°07' W 094°41'0 0.0
2018-May-21 22:29N 29°07' W 094°41'0 0.0
2018-May-21 21:59N 29°07' W 094°41'0 0.0
2018-May-21 21:29N 29°07' W 094°41'0 0.0
2018-May-21 20:59N 29°07' W 094°41'0 0.0
2018-May-21 20:29N 29°07' W 094°41'0 0.0
2018-May-21 19:59N 29°07' W 094°41'0 0.0
2018-May-21 19:29N 29°07' W 094°41'0 0.0
2018-May-21 18:11N 29°07' W 094°41'0 0.1
2018-May-21 17:59N 29°07' W 094°41'0 0.0
2018-May-21 17:23N 29°07' W 094°41'0 0.0
2018-May-21 16:59N 29°07' W 094°41'0 0.0
2018-May-21 15:32N 29°07' W 094°41'0 0.0
2018-May-21 15:23N 29°07' W 094°41'0 0.0
2018-May-21 14:50N 29°07' W 094°41'0 0.0
2018-May-21 14:20N 29°07' W 094°41'0 0.0
2018-May-21 12:38N 29°07' W 094°41'0 0.0
2018-May-21 12:26N 29°07' W 094°41'0 0.0
2018-May-21 11:47N 29°07' W 094°41'0 0.0
2018-May-21 11:20N 29°07' W 094°41'0 0.0
2018-May-21 10:59N 29°07' W 094°41'0 0.0
2018-May-21 09:53N 29°07' W 094°41'0 0.0
2018-May-21 09:26N 29°07' W 094°41'0 0.0
2018-May-21 08:59N 29°07' W 094°41'0 0.0
2018-May-21 05:17N 29°07' W 094°41'0 0.1
2018-May-21 04:59N 29°07' W 094°41'0 0.0
2018-May-21 04:23N 29°07' W 094°41'0 0.0
2018-May-21 01:20N 29°07' W 094°41'0 0.0
2018-May-21 00:56N 29°07' W 094°41'0 0.0
2018-May-21 00:29N 29°07' W 094°41'0 0.0
2018-May-20 23:56N 29°07' W 094°41'0 0.0
2018-May-20 23:29N 29°07' W 094°41'0 0.0
2018-May-20 22:53N 29°07' W 094°41'0 0.0
2018-May-20 22:29N 29°07' W 094°41'0 0.0
2018-May-20 21:59N 29°07' W 094°41'0 0.0
2018-May-20 21:20N 29°07' W 094°41'0 0.0
2018-May-20 20:50N 29°07' W 094°41'0 0.0
2018-May-20 20:26N 29°07' W 094°41'0 0.0
2018-May-20 19:59N 29°07' W 094°41'0 0.0
2018-May-20 19:20N 29°07' W 094°41'0 0.0
2018-May-20 18:59N 29°07' W 094°41'0 0.0
2018-May-20 18:29N 29°07' W 094°41'0 0.0
2018-May-20 17:59N 29°07' W 094°41'0 0.0
2018-May-20 17:29N 29°07' W 094°41'0 0.0
2018-May-20 16:17N 29°07' W 094°41'0 0.1
2018-May-20 15:59N 29°07' W 094°41'0 0.0
2018-May-20 15:26N 29°07' W 094°41'0 0.0
2018-May-20 14:59N 29°07' W 094°41'0 0.0
2018-May-20 14:29N 29°07' W 094°41'0 0.0
2018-May-20 13:59N 29°07' W 094°41'0 0.0
2018-May-20 13:29N 29°07' W 094°41'0 0.0
2018-May-20 12:59N 29°07' W 094°41'0 0.0
2018-May-20 12:29N 29°07' W 094°41'0 0.0
2018-May-20 11:59N 29°07' W 094°41'0 0.0
2018-May-20 11:29N 29°07' W 094°41'0 0.0
2018-May-20 10:59N 29°07' W 094°41'0 0.0
2018-May-20 10:29N 29°07' W 094°41'0 0.0
2018-May-20 09:59N 29°07' W 094°41'0 0.0
2018-May-20 09:29N 29°07' W 094°41'0 0.0
2018-May-20 08:56N 29°07' W 094°41'0 0.0
2018-May-20 08:29N 29°07' W 094°41'0 0.0
2018-May-20 07:59N 29°07' W 094°41'0 0.0
2018-May-20 07:26N 29°07' W 094°41'0 0.0
2018-May-20 06:59N 29°07' W 094°41'0 0.0
2018-May-20 06:29N 29°07' W 094°41'0 0.0
2018-May-20 04:26N 29°07' W 094°41'0 0.0
2018-May-19 23:59N 29°07' W 094°41'0 0.0
2018-May-19 21:59N 29°07' W 094°41'0 0.0
2018-May-19 20:08N 29°07' W 094°41'0 0.0
2018-May-19 19:41N 29°07' W 094°41'0 0.0
2018-May-19 19:14N 29°07' W 094°41'0 0.0
2018-May-19 18:59N 29°07' W 094°41'0 0.0
2018-May-19 18:26N 29°07' W 094°41'0 0.0
2018-May-19 17:26N 29°07' W 094°41'0 0.0
2018-May-19 16:56N 29°07' W 094°41'0 0.0
2018-May-19 16:29N 29°07' W 094°41'0 0.0
2018-May-19 15:59N 29°07' W 094°41'0 0.0
2018-May-19 15:29N 29°07' W 094°41'0 0.0
2018-May-19 14:32N 29°07' W 094°41'0 0.1
2018-May-19 14:26N 29°07' W 094°41'0 0.0
2018-May-19 13:47N 29°07' W 094°41'0 0.0
2018-May-19 13:17N 29°07' W 094°41'0 0.0
2018-May-19 12:23N 29°07' W 094°41'0 0.0
2018-May-19 11:59N 29°07' W 094°41'0 0.0
2018-May-19 11:23N 29°07' W 094°41'0 0.0
2018-May-19 10:59N 29°07' W 094°41'0 0.0
2018-May-19 10:29N 29°07' W 094°41'0 0.0
2018-May-19 09:56N 29°07' W 094°41'0 0.0
2018-May-19 09:26N 29°07' W 094°41'0 0.0
2018-May-19 08:47N 29°07' W 094°41'0 0.0
2018-May-19 08:26N 29°07' W 094°41'0 0.0
2018-May-19 07:59N 29°07' W 094°41'0 0.0
2018-May-19 07:26N 29°07' W 094°41'0 0.0
2018-May-19 06:56N 29°07' W 094°41'0 0.0
2018-May-19 06:29N 29°07' W 094°41'0 0.0
2018-May-19 05:56N 29°07' W 094°41'0 0.0
2018-May-19 05:29N 29°07' W 094°41'0 0.0
2018-May-19 04:59N 29°07' W 094°41'0 0.0
2018-May-19 04:29N 29°07' W 094°41'0 0.0
2018-May-19 03:23N 29°07' W 094°41'0 0.0
2018-May-19 01:53N 29°07' W 094°41'0 0.0
2018-May-19 01:26N 29°07' W 094°41'0 0.0
2018-May-19 00:53N 29°07' W 094°41'0 0.0
2018-May-19 00:26N 29°07' W 094°41'0 0.0
2018-May-18 23:56N 29°07' W 094°41'0 0.0
2018-May-18 23:17N 29°07' W 094°41'0 0.0
2018-May-18 22:59N 29°07' W 094°41'0 0.0
2018-May-18 22:29N 29°07' W 094°41'0 0.0
2018-May-18 21:59N 29°07' W 094°41'0 0.0
2018-May-18 21:29N 29°07' W 094°41'0 0.0
2018-May-18 20:59N 29°07' W 094°41'0 0.0
2018-May-18 20:29N 29°07' W 094°41'0 0.0
2018-May-18 19:53N 29°07' W 094°41'0 0.0
2018-May-18 19:29N 29°07' W 094°41'0 0.0
2018-May-18 18:59N 29°07' W 094°41'0 0.0
2018-May-18 18:20N 29°07' W 094°41'0 0.0
2018-May-18 17:59N 29°07' W 094°41'0 0.0
2018-May-18 17:29N 29°07' W 094°41'0 0.0
2018-May-18 16:47N 29°07' W 094°41'0 0.0
2018-May-18 16:29N 29°07' W 094°41'0 0.0
2018-May-18 15:56N 29°07' W 094°41'0 0.0
2018-May-18 12:35N 29°07' W 094°41'0 0.1
2018-May-18 12:29N 29°07' W 094°41'0 0.0
2018-May-18 11:59N 29°07' W 094°41'0 0.0
2018-May-18 11:29N 29°07' W 094°41'0 0.0
2018-May-18 10:59N 29°07' W 094°41'0 0.0
2018-May-18 10:26N 29°07' W 094°41'0 0.0
2018-May-18 09:56N 29°07' W 094°41'0 0.0
2018-May-18 09:29N 29°07' W 094°41'0 0.0
2018-May-18 08:59N 29°07' W 094°41'0 0.0
2018-May-18 08:26N 29°07' W 094°41'0 0.0
2018-May-18 07:59N 29°07' W 094°41'0 0.0
2018-May-18 07:29N 29°07' W 094°41'0 0.0
2018-May-18 06:59N 29°07' W 094°41'0 0.0
2018-May-18 06:29N 29°07' W 094°41'0 0.0
2018-May-18 05:59N 29°07' W 094°41'0 0.0
2018-May-18 05:29N 29°07' W 094°41'0 0.0
2018-May-18 04:59N 29°07' W 094°41'0 0.0
2018-May-18 04:26N 29°07' W 094°41'0 0.0
2018-May-18 03:59N 29°07' W 094°41'0 0.0
2018-May-18 03:20N 29°07' W 094°41'0 0.0
2018-May-18 02:59N 29°07' W 094°41'0 0.0
2018-May-18 02:29N 29°07' W 094°41'0 0.0
2018-May-18 01:59N 29°07' W 094°41'0 0.0
2018-May-18 01:23N 29°07' W 094°41'0 0.0
2018-May-18 00:53N 29°07' W 094°41'0 0.0
2018-May-18 00:29N 29°07' W 094°41'0 0.0
2018-May-17 23:59N 29°07' W 094°41'0 0.0
2018-May-17 23:29N 29°07' W 094°41'0 0.0
2018-May-17 22:59N 29°07' W 094°41'0 0.0
2018-May-17 22:29N 29°07' W 094°41'0 0.0
2018-May-17 21:59N 29°07' W 094°41'0 0.0
2018-May-17 21:29N 29°07' W 094°41'0 0.0
2018-May-17 20:59N 29°07' W 094°41'0 0.0
2018-May-17 20:29N 29°07' W 094°41'0 0.0
2018-May-17 19:47N 29°07' W 094°41'0 0.0
2018-May-17 19:29N 29°07' W 094°41'0 0.0
2018-May-17 18:59N 29°07' W 094°41'0 0.0
2018-May-17 18:29N 29°07' W 094°41'0 0.0
2018-May-17 17:56N 29°07' W 094°41'0 0.0
2018-May-17 17:29N 29°07' W 094°41'0 0.0
2018-May-17 16:59N 29°07' W 094°41'0 0.0
2018-May-17 15:41N 29°07' W 094°41'0 0.0
2018-May-17 15:29N 29°07' W 094°41'0 0.0
2018-May-17 14:59N 29°07' W 094°41'0 0.0
2018-May-17 14:29N 29°07' W 094°41'0 0.0
2018-May-17 13:56N 29°07' W 094°41'0 0.0
2018-May-17 13:26N 29°07' W 094°41'0 0.0
2018-May-17 12:50N 29°07' W 094°41'0 0.0
2018-May-17 12:29N 29°07' W 094°41'0 0.0
2018-May-17 10:26N 29°07' W 094°41'0 0.0
2018-May-17 07:47N 29°07' W 094°41'0 0.0
2018-May-17 07:17N 29°07' W 094°41'0 0.0
2018-May-17 06:53N 29°07' W 094°41'0 0.0
2018-May-17 06:29N 29°07' W 094°41'0 0.0
2018-May-17 05:59N 29°07' W 094°41'0 0.0
2018-May-17 05:29N 29°07' W 094°41'0 0.0
2018-May-17 04:56N 29°07' W 094°41'0 0.0
2018-May-17 04:29N 29°07' W 094°41'0 0.0
2018-May-17 03:59N 29°07' W 094°41'0 0.0
2018-May-17 03:29N 29°07' W 094°41'0 0.0
2018-May-17 02:59N 29°07' W 094°41'0 0.0
2018-May-17 02:29N 29°07' W 094°41'0 0.0
2018-May-17 01:59N 29°07' W 094°41'0 0.0
2018-May-17 01:29N 29°07' W 094°41'0 0.0
2018-May-17 00:59N 29°07' W 094°41'0 0.0
2018-May-17 00:14N 29°07' W 094°41'0 0.0
2018-May-16 23:59N 29°07' W 094°41'0 0.1
2018-May-16 23:30N 29°07' W 094°41'2 3.8
2018-May-16 23:00N 29°06' W 094°39'510.4
2018-May-16 22:30N 29°04' W 094°33'611.8
2018-May-16 22:00N 29°02' W 094°27'611.6
2018-May-16 21:30N 28°56' W 094°25'612.4
2018-May-16 21:00N 28°50' W 094°25'612.3
2018-May-16 20:30N 28°44' W 094°25'612.3
2018-May-16 20:00N 28°38' W 094°25'612.3
2018-May-16 19:30N 28°32' W 094°25'612.1
2018-May-16 19:00N 28°26' W 094°25'612.1
2018-May-16 18:29N 28°19' W 094°25'612.2
2018-May-16 18:00N 28°14' W 094°25'612.5
2018-May-16 17:30N 28°07' W 094°25'612.4
2018-May-16 17:00N 28°01' W 094°25'612.7
2018-May-16 16:30N 27°55' W 094°26'4 8.2
2018-May-16 16:00N 27°51' W 094°26'3 6.5
2018-May-16 15:30N 27°48' W 094°25'612.4
2018-May-16 15:00N 27°41' W 094°25'612.4
2018-May-16 14:30N 27°36' W 094°21'713.2
2018-May-16 14:01N 27°32' W 094°16'713.2
2018-May-16 13:30N 27°27' W 094°11'613.0
2018-May-16 13:00N 27°22' W 094°06'612.9
2018-May-16 12:30N 27°18' W 094°00'713.1
2018-May-16 11:58N 27°13' W 093°55'613.2
2018-May-16 11:30N 27°08' W 093°50'612.9
2018-May-16 11:01N 27°04' W 093°45'713.2
2018-May-16 10:30N 26°59' W 093°40'713.2
2018-May-16 10:00N 26°54' W 093°35'713.0
2018-May-16 09:30N 26°49' W 093°30'612.9
2018-May-16 09:00N 26°45' W 093°25'613.0
2018-May-16 08:31N 26°40' W 093°19'613.0
2018-May-16 08:01N 26°36' W 093°14'2313.1
2018-May-16 06:15N 26°19' W 092°57'313.2
2018-May-16 06:00N 26°17' W 092°54'  

Dump ship's entire track history